Weather observations for the past three days for
Ada, Ada Municipal Airport
Metric (Imperial)
Date Time (cdt) Wind (kph) Vis. (km) Weather Sky Cond. Temperature (ºC) Relative Humidity Wind Chill (°C) Heat Index (°C) Pressure Precipitation (cm)
Air Dwpt 6 hour altimeter (cm) sea level (mb) 1 hr 3 hr 6 hr
Max. Min.
02 14:15 E 15 G 26 16.09 Fair CLR 37 22 42% 42 76.15 0.0
02 13:55 S 15 16.09 Fair CLR 37 22 42% 42 76.17 0.0
02 13:35 SE 13 16.09 Fair CLR 36 22 44% 41 76.2 0.0
02 13:15 SE 19 16.09 Fair CLR 36 22 44% 41 76.2 0.0
02 12:55 SE 15 16.09 Fair CLR 36 23 35.8 24.3 47% 42 76.25 0.0
02 12:35 E 11 G 26 16.09 Fair CLR 35 23 50% 41 76.28 0.0
02 12:15 E 13 16.09 Fair CLR 35 23 50% 41 76.3 0.0
02 11:55 SE 15 16.09 Fair CLR 35 23 50% 41 76.3 0.0
02 11:35 SE 13 16.09 Fair CLR 34 24 56% 41 76.33 0.0
02 11:15 S 7 G 26 16.09 Fair CLR 34 24 56% 41 76.33 0.0
02 10:55 SE 17 G 26 16.09 Fair CLR 33 24 59% 39 76.33 0.0
02 10:35 SE 15 16.09 Fair CLR 33 24 59% 39 76.33 0.0
02 10:15 SE 13 16.09 Fair CLR 32 24 63% 38 76.3 0.0
02 09:55 S 6 16.09 Fair CLR 31 24 66% 37 76.3 0.0
02 09:35 Vrbl 6 16.09 Fair CLR 30 24 70% 35 76.33 0.0
02 09:15 S 11 16.09 Fair CLR 30 24 70% 35 76.3 0.0
02 08:55 S 9 16.09 Fair CLR 29 25 79% 35 76.3 0.0
02 08:35 S 11 16.09 Fair CLR 28 25 84% 33 76.3 0.0
02 08:15 S 9 16.09 Fair CLR 28 25 84% 33 76.3 0.0
02 07:55 Calm 16.09 Fair CLR 27 25 89% 31 76.3 0.0
02 07:35 Calm 16.09 Fair CLR 25 25 100% 25 76.28 0.0
02 07:15 Calm 16.09 Fair CLR 24 24 100% 23 76.28 0.0
02 06:55 Calm 16.09 Fair CLR 25 24 28.8 24.7 94% 26 76.25 0.0
02 06:35 Calm 16.09 Fair CLR 25 24 94% 26 76.25 0.0
02 06:15 Calm 16.09 Fair CLR 26 23 84% 28 76.25 0.0
02 05:55 S 9 16.09 Fair CLR 26 23 84% 28 76.23 0.0
02 05:35 SE 13 16.09 Fair CLR 26 23 84% 28 76.23 0.0
02 05:15 SE 13 16.09 Fair CLR 26 23 84% 28 76.23 0.0
02 04:55 S 11 16.09 Fair CLR 27 23 79% 30 76.23 0.0
02 04:35 SE 13 16.09 Fair CLR 27 23 79% 30 76.23 0.0
02 04:15 S 13 16.09 Fair CLR 27 23 79% 30 76.23 0.0
02 03:56 SE 13 16.09 Fair CLR 27 22 74% 29 76.23 0.0
02 03:35 S 11 16.09 Fair CLR 27 22 74% 29 76.23 0.0
02 03:15 S 9 16.09 Fair CLR 26 22 79% 28 76.23 0.0
02 02:55 SE 9 16.09 Fair CLR 26 22 79% 28 76.23 0.0
02 02:35 SE 9 16.09 Fair CLR 27 22 74% 29 76.23 0.0
02 02:15 SE 11 16.09 Fair CLR 27 22 74% 29 76.23 0.0
02 01:55 SE 9 16.09 Fair CLR 27 22 74% 29 76.23 0.0
02 01:35 S 7 16.09 Fair CLR 27 22 74% 29 76.23 0.0
02 01:15 SE 11 16.09 Fair CLR 27 22 74% 29 76.23 0.0
02 00:55 SE 11 16.09 Fair CLR 29 22 37.2 27.8 66% 32 76.23 0.0
02 00:35 S 9 16.09 Fair CLR 29 21 62% 31 76.2 0.0
02 00:15 S 9 16.09 Fair CLR 29 21 62% 31 76.2 0.0
01 23:55 S 9 16.09 Fair CLR 29 21 62% 31 76.2 0.0
01 23:35 SE 9 16.09 Fair CLR 28 21 66% 30 76.2 0.0
01 23:15 SE 7 16.09 Fair CLR 29 21 62% 31 76.2 0.0
01 22:55 SE 6 16.09 Fair CLR 29 21 62% 31 76.17 0.0
01 22:35 SE 7 16.09 Fair CLR 29 21 62% 31 76.17 0.0
01 22:15 Calm 16.09 Fair CLR 30 21 59% 33 76.15 0.0
01 21:55 Calm 16.09 Fair CLR 30 21 59% 33 76.12 0.0
01 21:35 Calm 16.09 Fair CLR 30 21 59% 33 76.12 0.0
01 21:15 SE 7 16.09 Fair CLR 31 21 55% 34 76.1 0.0
01 20:55 SE 7 16.09 Fair CLR 31 21 55% 34 76.07 0.0
01 20:35 S 7 16.09 Fair CLR 32 21 52% 35 76.05 0.0
01 20:15 S 9 16.09 Fair CLR 33 21 49% 36 76.05 0.0
01 19:55 SE 9 16.09 Fair CLR 34 21 47% 37 76.05 0.0
01 19:35 SE 15 16.09 Fair CLR 35 21 44% 38 76.05 0.0
01 19:16 SE 17 16.09 Fair CLR 36 21 42% 40 76.07 0.0
01 18:55 SE 15 16.09 Fair CLR 37 20 39.8 36.5 37% 40 76.07 0.0
01 18:35 SE 13 16.09 Fair CLR 38 21 37% 42 76.07 0.0
01 18:15 SE 13 16.09 Fair CLR 37 21 39% 41 76.07 0.0
01 17:55 SE 19 G 31 16.09 Fair CLR 38 20 35% 41 76.07 0.0
01 17:35 Vrbl 9 16.09 A Few Clouds FEW080 38 21 37% 42 76.07 0.0
01 17:15 S 17 16.09 A Few Clouds FEW080 39 21 35% 43 76.07 0.0
01 16:56 S 9 G 26 16.09 Fair CLR 39 21 35% 43 76.07 0.0
01 16:35 SE 15 G 26 16.09 A Few Clouds FEW080 FEW100 37 20 37% 40 76.1 0.0
01 16:15 SE 17 16.09 A Few Clouds FEW080 39 21 35% 43 76.1 0.0
01 15:55 S 13 16.09 Fair CLR 39 20 33% 42 76.12 0.0
01 15:35 Vrbl 6 16.09 A Few Clouds FEW080 39 21 35% 43 76.12 0.0
01 15:15 SE 20 G 30 16.09 A Few Clouds FEW080 39 21 35% 43 76.15 0.0
01 14:55 S 13 16.09 Fair CLR 39 21 35% 43 76.17 0.0
01 14:35 SE 13 G 28 16.09 Fair CLR 38 21 37% 42 76.2 0.0
01 14:15 SE 19 G 28 16.09 A Few Clouds FEW070 38 21 37% 42 76.2 0.0
01 13:55 E 22 G 28 16.09 A Few Clouds FEW070 38 22 40% 43 76.23 0.0
01 13:35 E 20 16.09 A Few Clouds FEW070 38 22 40% 43 76.25 0.0
01 13:15 Vrbl 9 16.09 A Few Clouds FEW070 38 21 37% 42 76.28 0.0
01 12:55 SE 19 G 26 16.09 Partly Cloudy SCT070 SCT085 38 21 37.6 24.6 37% 42 76.3 0.0
01 12:35 S 13 G 26 16.09 Fair CLR 37 21 39% 41 76.3 0.0
01 12:15 Calm 16.09 Fair CLR 37 22 42% 42 76.33 0.0
01 11:55 Vrbl 7 16.09 Fair CLR 36 23 47% 42 76.33 0.0
01 11:35 Vrbl 7 16.09 Fair CLR 35 23 50% 41 76.35 0.0
01 11:15 Vrbl 9 16.09 Fair CLR 34 23 53% 39 76.35 0.0
01 10:55 Vrbl 6 16.09 Fair CLR 34 23 53% 39 76.38 0.0
01 10:35 S 9 16.09 Fair CLR 33 23 56% 38 76.38 0.0
01 10:15 SE 11 16.09 Fair CLR 32 23 59% 37 76.38 0.0
01 09:55 S 7 16.09 Fair CLR 31 22 59% 35 76.38 0.0
01 09:35 SE 9 16.09 Fair CLR 30 23 66% 34 76.38 0.0
01 09:15 SE 11 16.09 Fair CLR 29 23 70% 33 76.38 0.0
01 08:55 S 9 16.09 Fair CLR 28 22 70% 31 76.38 0.0
01 08:35 SE 11 16.09 Fair CLR 28 22 70% 31 76.38 0.0
01 08:15 SE 9 16.09 Fair CLR 27 22 74% 29 76.35 0.0
01 07:55 SE 9 16.09 Fair CLR 26 22 79% 28 76.33 0.0
01 07:35 SE 9 16.09 Fair CLR 25 22 83% 26 76.33 0.0
01 07:15 SE 9 16.09 Fair CLR 25 22 83% 26 76.3 0.0
01 06:55 SE 7 16.09 Fair CLR 25 22 28.6 24.4 83% 26 76.3 0.0
01 06:35 S 7 16.09 Fair CLR 25 21 79% 26 76.3 0.0
01 06:15 Calm 16.09 Fair CLR 25 21 79% 26 76.3 0.0
01 05:56 S 7 16.09 Fair CLR 26 21 74% 27 76.28 0.0
01 05:35 S 11 16.09 A Few Clouds FEW095 27 21 70% 29 76.28 0.0
01 05:15 S 11 16.09 Partly Cloudy SCT095 27 21 70% 29 76.28 0.0
01 04:55 SE 13 16.09 Mostly Cloudy BKN095 27 21 70% 29 76.28 0.0
01 04:35 SE 13 16.09 Overcast OVC095 27 21 70% 29 76.28 0.0
01 04:15 SE 15 16.09 Overcast OVC095 27 21 70% 29 76.28 0.0
01 03:55 SE 13 16.09 Overcast OVC095 28 21 66% 30 76.28 0.0
01 03:35 SE 15 16.09 Partly Cloudy SCT095 27 21 70% 29 76.28 0.0
01 03:15 SE 15 16.09 Fair CLR 27 20 66% 29 76.28 0.0
01 02:55 SE 13 16.09 Fair CLR 27 20 66% 29 76.25 0.0
01 02:35 SE 13 16.09 Fair CLR 27 20 66% 29 76.25 0.0
01 02:15 SE 13 16.09 Fair CLR 28 20 62% 30 76.28 0.0
01 01:55 S 13 16.09 Fair CLR 28 20 62% 30 76.25 0.0
01 01:35 S 9 16.09 Fair CLR 28 20 62% 30 76.25 0.0
01 01:15 S 9 16.09 Fair CLR 27 19 62% 28 76.25 0.0
01 00:55 S 7 16.09 Fair CLR 28 19 37 27 58% 29 76.25 0.0
01 00:35 S 9 16.09 Fair CLR 27 19 62% 28 76.23 0.0
01 00:15 S 7 16.09 Fair CLR 27 19 62% 28 76.23 0.0
31 23:55 S 6 16.09 Fair CLR 27 19 62% 28 76.2 0.0
31 23:35 Calm 16.09 Fair CLR 28 18 55% 29 76.2 0.0
31 23:15 Calm 16.09 Fair CLR 28 18 55% 29 76.2 0.0
31 22:55 SE 7 16.09 Fair CLR 28 18 55% 29 76.2 0.0
31 22:35 Calm 16.09 Fair CLR 29 18 51% 30 76.2 0.0
31 22:15 Calm 16.09 Fair CLR 29 18 51% 30 76.17 0.0
31 21:55 Calm 16.09 Fair CLR 29 18 51% 30 76.17 0.0
31 21:35 SE 7 16.09 Fair CLR 29 18 51% 30 76.17 0.0
31 21:15 Calm 16.09 Fair CLR 31 18 46% 32 76.15 0.0
31 20:55 Calm 16.09 Fair CLR 30 18 49% 31 76.12 0.0
31 20:35 Calm 16.09 Fair CLR 31 18 46% 32 76.12 0.0
31 20:15 S 7 16.09 Fair CLR 32 18 43% 33 76.1 0.0
31 19:55 S 9 16.09 Fair CLR 34 18 39% 35 76.1 0.0
31 19:35 S 11 16.09 Fair CLR 35 18 36% 36 76.1 0.0
31 19:15 S 11 16.09 Fair CLR 36 18 34% 37 76.07 0.0
31 18:35 S 15 16.09 Fair CLR 37 18 33% 39 76.1 0.0
31 18:15 S 17 16.09 Fair CLR 37 18 33% 39 76.1 0.0
31 17:55 S 15 16.09 Fair CLR 38 18 31% 40 76.1 0.0
31 17:35 S 15 G 26 16.09 Fair CLR 38 18 31% 40 76.1 0.0
31 17:15 S 11 G 26 16.09 Fair CLR 39 17 27% 40 76.1 0.0
31 16:55 S 19 G 31 16.09 Fair CLR 39 17 27% 40 76.1 0.0
31 16:35 S 11 16.09 A Few Clouds FEW090 38 17 29% 39 76.12 0.0
31 16:15 SE 17 16.09 Partly Cloudy SCT090 37 17 31% 38 76.12 0.0
31 15:55 SE 24 G 31 16.09 Mostly Cloudy BKN090 38 18 31% 40 76.15 0.0
31 15:35 S 11 16.09 Partly Cloudy SCT090 38 18 31% 40 76.17 0.0
31 15:15 Vrbl 11 G 33 16.09 A Few Clouds FEW090 39 19 31% 42 76.17 0.0
31 14:57 S 19 G 30 16.09 A Few Clouds FEW085 38 19 33% 40 76.2 0.0
31 14:35 S 20 G 26 16.09 Fair CLR 39 19 31% 42 76.2 0.0
31 14:15 SE 20 16.09 A Few Clouds FEW085 39 20 33% 42 76.23 0.0
31 13:55 S 17 16.09 Partly Cloudy SCT085 37 20 37% 40 76.25 0.0
31 13:35 SE 15 G 31 16.09 Fair CLR 38 20 35% 41 76.28 0.0
31 13:15 S 17 G 31 16.09 Partly Cloudy SCT080 37 20 37% 40 76.28 0.0
31 12:55 SW 17 G 28 16.09 Mostly Cloudy SCT070 BKN090 36 20 37.1 22.2 39% 39 76.3 0.0
31 12:35 SW 15 16.09 Mostly Cloudy SCT070 BKN090 37 21 39% 41 76.33 0.0
31 12:15 S 13 16.09 Partly Cloudy SCT090 35 21 44% 38 76.33 0.0
31 11:35 S 17 G 28 16.09 Fair CLR 35 22 47% 39 76.35 0.0
31 11:15 SW 19 16.09 Fair CLR 35 22 47% 39 76.35 0.0
31 10:55 SW 19 G 26 16.09 Fair CLR 34 22 50% 38 76.35 0.0
31 10:35 SW 17 16.09 Fair CLR 33 22 52% 37 76.35 0.0
31 10:15 S 11 16.09 Fair CLR 32 22 55% 36 76.35 0.0
31 09:55 Calm 16.09 Fair CLR 31 22 59% 35 76.35 0.0
31 09:35 S 7 16.09 Fair CLR 30 21 59% 33 76.35 0.0
31 09:15 S 7 16.09 Fair CLR 29 21 62% 31 76.35 0.0
31 08:55 SE 9 16.09 Fair CLR 28 21 66% 30 76.33 0.0
31 08:35 SE 9 16.09 Fair CLR 27 21 70% 29 76.33 0.0
31 08:15 SE 9 16.09 Fair CLR 26 21 74% 27 76.3 0.0
31 07:55 SE 11 16.09 Fair CLR 24 21 83% 24 76.3 0.0
31 07:35 SE 7 16.09 Fair CLR 23 21 89% 76.25 0.0
31 07:15 SE 7 16.09 Fair CLR 23 21 89% 76.25 0.0
31 06:55 E 7 16.09 Fair CLR 23 21 27.7 22.5 89% 76.23 0.0
31 06:35 SE 7 16.09 Fair CLR 23 21 89% 76.2 0.0
31 06:15 SE 9 16.09 Fair CLR 23 20 83% 76.2 0.0
31 05:55 SE 6 16.09 Fair CLR 23 20 83% 76.17 0.0
31 05:36 SE 7 16.09 Fair CLR 23 20 83% 76.17 0.0
31 05:15 SE 6 16.09 Fair CLR 24 20 78% 24 76.17 0.0
31 04:55 SE 9 16.09 Fair CLR 24 20 78% 24 76.15 0.0
31 04:35 SE 9 16.09 Fair CLR 25 20 74% 26 76.15 0.0
31 04:15 SE 9 16.09 Fair CLR 25 20 74% 26 76.12 0.0
31 03:56 SE 13 16.09 Fair CLR 25 20 74% 26 76.12 0.0
31 03:35 SE 9 16.09 Fair CLR 25 19 69% 26 76.12 0.0
31 03:15 SE 11 16.09 Fair CLR 25 19 69% 26 76.12 0.0
31 02:55 SE 11 16.09 Fair CLR 26 19 65% 27 76.12 0.0
31 02:35 SE 15 16.09 Fair CLR 27 19 62% 28 76.15 0.0
31 02:10 SE 13 16.09 Fair CLR 26 19 65% 27 76.15 0.0
31 01:55 SE 11 16.09 Fair CLR 26 19 65% 27 76.15 0.0
31 01:35 SE 13 16.09 Fair CLR 27 18 58% 28 76.15 0.0
31 01:15 S 7 16.09 Fair CLR 27 18 58% 28 76.12 0.0
31 00:55 S 7 16.09 Fair CLR 28 18 37.4 27.5 55% 29 76.12 0.0
31 00:35 S 7 16.09 Fair CLR 28 18 55% 29 76.12 0.0
31 00:15 S 9 16.09 Fair CLR 29 18 51% 30 76.1 0.0
30 23:55 S 9 16.09 Fair CLR 30 18 49% 31 76.1 0.0
30 23:35 S 9 16.09 Fair CLR 29 18 51% 30 76.1 0.0
30 23:15 S 7 16.09 Fair CLR 29 19 55% 30 76.1 0.0
30 22:55 S 7 16.09 Fair CLR 29 19 55% 30 76.1 0.0
30 22:35 S 7 16.09 Fair CLR 29 19 55% 30 76.07 0.0
30 22:15 S 9 16.09 Fair CLR 30 19 52% 31 76.07 0.0
30 21:55 S 7 16.09 Fair CLR 30 19 52% 31 76.07 0.0
30 21:35 S 9 16.09 Fair CLR 31 19 49% 32 76.05 0.0
30 21:15 S 9 16.09 Fair CLR 31 19 49% 32 76.02 0.0
30 20:56 S 9 16.09 Fair CLR 32 19 46% 33 76.02 0.0
30 20:35 S 13 16.09 Fair CLR 33 18 41% 34 76 0.0
30 20:15 S 9 16.09 Fair CLR 33 18 41% 34 76 0.0
30 19:55 S 11 16.09 Fair CLR 34 18 39% 35 76 0.0
30 19:35 S 13 16.09 Fair CLR 36 19 37% 38 75.97 0.0
30 19:15 S 15 16.09 Fair CLR 37 19 35% 39 75.97 0.0
30 18:55 SE 22 G 28 16.09 Fair CLR 37 19 40.1 36.5 35% 39 76 0.0
30 18:35 S 19 16.09 Fair CLR 38 19 33% 40 76 0.0
30 18:15 S 15 G 31 16.09 A Few Clouds FEW095 38 19 33% 40 76 0.0
30 17:55 SE 20 G 28 16.09 A Few Clouds FEW095 39 20 33% 42 76 0.0
30 17:35 S 15 16.09 Fair CLR 37 19 35% 39 75.97 0.0
30 17:15 S 11 G 30 16.09 A Few Clouds FEW095 38 20 35% 41 75.97 0.0
30 16:55 S 13 G 30 16.09 Partly Cloudy SCT095 39 20 33% 42 76 0.0
30 16:35 S 13 G 28 16.09 Mostly Cloudy BKN085 40 20 31% 44 76 0.0
30 16:15 S 24 G 33 16.09 Partly Cloudy SCT085 40 20 31% 44 76 0.0
30 15:55 S 22 G 31 16.09 Partly Cloudy SCT085 39 20 33% 42 76.02 0.0
30 15:35 S 22 16.09 Partly Cloudy SCT085 39 20 33% 42 76.05 0.0
30 15:15 S 13 16.09 Partly Cloudy SCT085 39 20 33% 42 76.07 0.0
30 14:55 S 19 16.09 A Few Clouds FEW085 39 20 33% 42 76.07 0.0
30 14:35 SW 15 16.09 A Few Clouds FEW085 39 19 31% 42 76.1 0.0
Date Time (cdt) Wind (kph) Vis. (km) Weather Sky Cond. Air Dwpt Max. Min. Relative Humidity Wind Chill (°C) Heat Index (°C) altimeter (cm) sea level (mb) 1 hr 3 hr 6 hr
6 hour
Temperature (ºC) Pressure Precipitation (cm)